• Join FlightAware (Why Join?)
  • Login
  • US Flag 
02:53AM EST


 

Airport Tracker/Info


-or-


 

Live Flight TrackerFlight Track Log ✈ AAL2345 ✈ 12-Sep-2013 ✈ KORD - KDFW

Flight Track Log - Related Links

Times and Time Zones

All times are in EDT time to prevent confusion due to time zone crossing. See the AAL2345 flight status page for this flight to view local times or setup timezone preferences in your user account.

Time Position Orientation Groundspeed Altitude Reporting Facility
EDT Latitude Longitude Course Direction KTS MPH feet Rate Location/Type
06:42PM 41.9500 -87.8500 196° South 209 241 3,100  Level Chicago TRACON
06:43PM 41.8667 -87.8500 180° South 257 296 4,900 1,800 Climbing Chicago TRACON
06:44PM 41.8322 -87.8872 219° Southwest 257 296 6,400 2,160 Climbing Chicago Center
06:45PM 41.7608 -87.9369 207° Southwest 284 327 8,900 2,700 Climbing Chicago Center
06:46PM 41.6708 -87.9983 207° Southwest 304 350 12,100 2,220 Climbing Chicago Center
06:47PM 41.5906 -88.0539 207° Southwest 324 373 13,500 1,740 Climbing Chicago Center
06:48PM 41.4869 -88.4887 196° South  Level Estimated
06:48PM 41.5008 -88.1142 207° Southwest 362 417 15,800  Level Chicago Center
06:49PM 41.3897 -88.1872 206° Southwest 389 448 17,800 1,980 Climbing Chicago Center
06:50PM 41.2864 -88.2333 199° South 399 459 19,900 1,860 Climbing Chicago Center
06:51PM 41.1806 -88.2817 199° South 405 466 21,700 1,560 Climbing Chicago Center
06:52PM 41.0731 -88.3311 199° South 409 471 23,200 1,500 Climbing Chicago Center
06:53PM 40.9406 -88.3889 198° South 417 480 24,900 1,440 Climbing Chicago Center
06:54PM 40.8292 -88.4406 199° South 426 490 26,200 960 Climbing Chicago Center
06:56PM 40.7400 -88.5344 219° Southwest 424 488 26,900 660 Climbing Chicago Center
06:57PM 40.6475 -88.6378 220° Southwest 432 497 27,600 960 Climbing Chicago Center
06:58PM 40.5500 -88.7392 218° Southwest 444 511 28,900 1,200 Climbing Chicago Center
06:59PM 40.4508 -88.8408 218° Southwest 447 514 30,100 1,080 Climbing Chicago Center
07:00PM 40.3547 -88.9444 219° Southwest 446 513 31,200 900 Climbing Chicago Center
07:01PM 40.2394 -89.0650 219° Southwest 441 507 32,000 360 Climbing Chicago Center
07:02PM 40.1417 -89.1672 219° Southwest 446 513 32,000  Level Chicago Center
07:02PM 40.0825 -89.2306 219° Southwest 445 512 32,000  Level Kansas City Center
07:03PM 39.9842 -89.3325 218° Southwest 447 514 32,000  Level Kansas City Center
07:04PM 39.8872 -89.4350 219° Southwest 448 516 32,000 420 Level Kansas City Center
07:06PM 39.7697 -89.5572 219° Southwest 448 516 32,900 720 Climbing Kansas City Center
07:07PM 39.6867 -89.6431 219° Southwest 446 513 33,600 480 Climbing Kansas City Center
07:08PM 39.5722 -89.7603 218° Southwest 440 506 34,000 180 Climbing Kansas City Center
07:09PM 39.4769 -89.8578 218° Southwest 438 504 34,000  Level Kansas City Center
07:10PM 39.3817 -89.9564 219° Southwest 439 505 34,000  Level Kansas City Center
07:11PM 39.2858 -90.0533 218° Southwest 439 505 34,000  Level Kansas City Center
07:12PM 39.1894 -90.1517 218° Southwest 442 509 34,000  Level Kansas City Center
07:13PM 39.0747 -90.2686 218° Southwest 441 507 34,000  Level Kansas City Center
07:14PM 38.9789 -90.3656 218° Southwest 442 509 34,000  Level Kansas City Center
07:15PM 38.8931 -90.4533 219° Southwest 439 505 34,000  Level Kansas City Center
07:16PM 38.7911 -90.5869 226° Southwest 442 509 34,000  Level Kansas City Center
07:17PM 38.7239 -90.6867 229° Southwest 445 512 34,000  Level Kansas City Center
07:18PM 38.6289 -90.8231 228° Southwest 435 501 34,000  Level Kansas City Center
07:19PM 38.5500 -90.9372 229° Southwest 433 498 34,000  Level Kansas City Center
07:20PM 38.4706 -91.0522 229° Southwest 434 499 34,000  Level Kansas City Center
07:21PM 38.3894 -91.1703 229° Southwest 438 504 34,000  Level Kansas City Center
07:22PM 38.3092 -91.2856 228° Southwest 439 505 34,000  Level Kansas City Center
07:23PM 38.2133 -91.4200 228° Southwest 433 498 34,000  Level Kansas City Center
07:24PM 38.1342 -91.5353 229° Southwest 430 495 34,000  Level Kansas City Center
07:25PM 38.0528 -91.6497 228° Southwest 432 497 34,000  Level Kansas City Center
07:26PM 37.9706 -91.7661 228° Southwest 436 502 34,000  Level Kansas City Center
07:27PM 37.8878 -91.8850 229° Southwest 443 510 34,000  Level Kansas City Center
07:28PM 37.8047 -91.9997 228° Southwest 441 507 34,000  Level Kansas City Center
07:29PM 37.7117 -92.1319 228° Southwest 438 504 34,000  Level Kansas City Center
07:30PM 37.6397 -92.2325 228° Southwest 439 505 34,000  Level Kansas City Center
07:31PM 37.5578 -92.3483 228° Southwest 439 505 34,000  Level Kansas City Center
07:32PM 37.4589 -92.4872 228° Southwest 440 506 34,000  Level Kansas City Center
07:33PM 37.3758 -92.6022 228° Southwest 441 507 34,000  Level Kansas City Center
07:34PM 37.2917 -92.7142 227° Southwest 440 506 34,000  Level Kansas City Center
07:35PM 37.2061 -92.8292 227° Southwest 445 512 34,000  Level Kansas City Center
07:36PM 37.1217 -92.9456 228° Southwest 450 518 34,000  Level Kansas City Center
07:38PM 37.0367 -93.0589 227° Southwest 448 516 34,000  Level Kansas City Center
07:39PM 36.9242 -93.1347 208° Southwest 466 536 34,000  Level Kansas City Center
07:40PM 36.7978 -93.2269 210° Southwest 461 531 34,000  Level Kansas City Center
07:41PM 36.6894 -93.3094 211° Southwest 459 528 34,000  Level Kansas City Center
07:42PM 36.5800 -93.3903 211° Southwest 459 528 34,000  Level Kansas City Center
07:43PM 36.4697 -93.4758 212° Southwest 463 533 34,000  Level Kansas City Center
07:44PM 36.3531 -93.5650 212° Southwest 470 541 34,000  Level Memphis Center
07:45PM 36.2425 -93.6483 211° Southwest 470 541 34,000  Level Memphis Center
07:46PM 36.1319 -93.7286 210° Southwest 470 541 34,000  Level Memphis Center
07:47PM 36.0214 -93.8086 210° Southwest 470 541 34,000  Level Memphis Center
07:48PM 35.9128 -93.8889 211° Southwest 464 534 34,000  Level Memphis Center
07:49PM 35.8019 -93.9711 211° Southwest 464 534 34,000  Level Memphis Center
07:50PM 35.6911 -94.0531 211° Southwest 464 534 34,000  Level Memphis Center
07:51PM 35.5781 -94.1322 210° Southwest 464 534 34,000  Level Memphis Center
07:52PM 35.4692 -94.2142 212° Southwest 464 534 34,000  Level Memphis Center
07:53PM 35.3581 -94.2981 212° Southwest 464 534 34,000  Level Memphis Center
07:54PM 35.2650 -94.4031 223° Southwest 458 527 34,000  Level Memphis Center
07:56PM 35.0483 -94.6417 222° Southwest 463 533 34,000  Level Fort Worth Center
07:57PM 34.9525 -94.7461 222° Southwest 468 539 34,000  Level Fort Worth Center
07:58PM 34.8628 -94.8450 222° Southwest 479 551 34,000  Level Fort Worth Center
07:59PM 34.7647 -94.9467 220° Southwest 480 552 34,000 -180 Level Fort Worth Center
08:00PM 34.6667 -95.0528 222° Southwest 480 552 33,700 -840 Descending Fort Worth Center
08:01PM 34.5706 -95.1589 222° Southwest 480 552 32,400 -1,380 Descending Fort Worth Center
08:02PM 34.4722 -95.2622 221° Southwest 480 552 31,000 -1,500 Descending Fort Worth Center
08:03PM 34.3736 -95.3653 221° Southwest 480 552 29,500 -1,500 Descending Fort Worth Center
08:04PM 34.2731 -95.4708 221° Southwest 480 552 28,000 -1,560 Descending Fort Worth Center
08:05PM 34.1600 -95.5889 221° Southwest 480 552 26,400 -1,620 Descending Fort Worth Center
08:06PM 34.0717 -95.6783 220° Southwest 480 552 24,900 -1,920 Descending Fort Worth Center
08:07PM 33.9750 -95.7856 223° Southwest 474 545 22,600 -2,280 Descending Fort Worth Center
08:08PM 33.8844 -95.8872 223° Southwest 463 533 20,400 -2,400 Descending Fort Worth Center
08:09PM 33.7958 -95.9839 222° Southwest 443 510 17,900 -2,760 Descending Fort Worth Center
08:10PM 33.7031 -96.0853 222° Southwest 420 483 14,900 -2,580 Descending Fort Worth Center
08:11PM 33.6203 -96.1586 216° Southwest 415 478 12,800 -1,800 Descending Fort Worth Center
08:12PM 33.5231 -96.2325 212° Southwest 398 458 11,400 -900 Descending Fort Worth Center
08:13PM 33.4483 -96.2881 212° Southwest 363 418 11,000 -300 Descending Fort Worth Center
08:14PM 33.3675 -96.3464 211° Southwest 335 386 10,800 -780 Descending Fort Worth Center
08:15PM 33.3117 -96.4067 222° Southwest 307 353 9,500 -1,500 Descending Fort Worth Center
08:16PM 33.2853 -96.5114 253° West 292 336 7,900 -1,620 Descending Fort Worth Center
08:17PM 33.2608 -96.6036 252° West 292 336 6,400 -1,380 Descending Fort Worth Center
08:18PM 33.2383 -96.6931 253° West 287 330 5,200 -720 Descending Fort Worth Center
08:19PM 33.2117 -96.7803 250° West 287 330 5,000 -120 Descending Fort Worth Center
08:20PM 33.1869 -96.8697 252° West 287 330 5,000 -360 Level Fort Worth Center
08:21PM 33.1625 -96.9569 252° West 287 330 4,300 -540 Descending Fort Worth Center
08:22PM 33.1292 -97.0239 239° Southwest 255 293 4,000 -480 Descending Fort Worth Center
08:23PM 33.0728 -97.0292 184° South 207 238 3,400 -720 Descending Fort Worth Center
08:24PM 33.0228 -97.0269 178° South 185 213 2,600 -900 Descending Fort Worth Center
08:25PM 32.9747 -97.0247 178° South 180 207 1,700 -840 Descending Fort Worth Center
08:26PM 32.9331 -97.0272 183° South 165 190 1,000 -720 Descending Fort Worth Center
08:28PM 32.8968 -97.0380 202° Southwest  Level Estimated
08:35PM 32.8968 -97.0380 202° Southwest  Level Estimated
08:36PM 32.8968 -97.0380 202° Southwest  Level Estimated